Time;durP1;ratioP1;P1;durP2;ratioP2;P2;SDS_P1;SDS_P2;PMS_P1;PMS_P2;Temp;Humidity;BMP_temperature;BMP_pressure;BME280_temperature;BME280_humidity;BME280_pressure;Samples;Min_cycle;Max_cycle;Signal;HPM_P1;HPM_P2
2023/03/21 00:00:21;;;;;;;;;23.00;19.00;;;;;14.46;100.00;101208.06;5098607;27;45490;-78
2023/03/21 00:02:47;;;;;;;;;17.67;15.00;;;;;14.46;100.00;101209.94;5112656;27;45391;-78
2023/03/21 00:05:12;;;;;;;;;19.67;15.67;;;;;14.45;100.00;101214.63;5093183;27;45492;-76
2023/03/21 00:07:37;;;;;;;;;18.33;15.00;;;;;14.42;100.00;101203.22;5088899;27;45398;-77
2023/03/21 00:10:04;;;;;;;;;16.67;15.67;;;;;14.41;100.00;101207.03;5087311;27;45344;-79
2023/03/21 00:12:31;;;;;;;;;20.00;14.33;;;;;14.36;100.00;101206.88;5097995;27;45865;-77
2023/03/21 00:15:03;;;;;;;;;16.33;12.67;;;;;14.34;100.00;101201.56;5098545;27;45390;-78
2023/03/21 00:17:30;;;;;;;;;19.00;15.00;;;;;14.33;100.00;101202.63;5086118;27;45594;-75
2023/03/21 00:19:55;;;;;;;;;17.33;16.67;;;;;14.28;100.00;101195.03;5097585;27;45400;-78
2023/03/21 00:22:20;;;;;;;;;18.67;16.00;;;;;14.35;100.00;101196.88;5093160;27;46735;-79
2023/03/21 00:24:46;;;;;;;;;15.33;14.67;;;;;14.29;100.00;101195.84;5094134;27;45443;-79
2023/03/21 00:27:12;;;;;;;;;11.67;10.67;;;;;14.32;100.00;101189.06;5085553;27;45640;-77
2023/03/21 00:29:38;;;;;;;;;22.00;19.00;;;;;14.29;100.00;101191.16;5097615;27;45732;-77
2023/03/21 00:32:04;;;;;;;;;17.67;15.00;;;;;14.32;100.00;101189.06;5098924;27;45329;-77
2023/03/21 00:34:29;;;;;;;;;12.33;10.67;;;;;14.34;100.00;101186.91;5092732;27;45638;-78
2023/03/21 00:36:56;;;;;;;;;12.00;11.33;;;;;14.21;100.00;101163.88;5092302;27;45521;-77
2023/03/21 00:39:21;;;;;;;;;13.00;11.67;;;;;14.35;100.00;101185.84;5096762;27;45543;-77
2023/03/21 00:41:48;;;;;;;;;12.67;9.67;;;;;14.32;100.00;101191.81;5096042;27;46051;-77
2023/03/21 00:44:14;;;;;;;;;10.67;8.33;;;;;14.27;100.00;101190.56;5094375;27;45448;-77
2023/03/21 00:46:40;;;;;;;;;14.00;11.33;;;;;14.29;100.00;101180.13;5089920;27;45389;-76
2023/03/21 00:49:05;;;;;;;;;11.33;8.67;;;;;14.20;100.00;101170.44;5094758;27;45511;-78
2023/03/21 00:51:31;;;;;;;;;10.00;9.67;;;;;14.26;100.00;101179.75;5098886;27;45431;-77
2023/03/21 00:53:57;;;;;;;;;12.33;9.33;;;;;14.23;100.00;101178.28;5091402;27;45300;-77
2023/03/21 00:56:23;;;;;;;;;12.33;12.33;;;;;14.14;100.00;101174.09;5086545;27;45254;-76
2023/03/21 00:58:49;;;;;;;;;11.67;9.67;;;;;14.18;100.00;101177.28;5092438;27;45663;-75
2023/03/21 01:01:15;;;;;;;;;12.67;9.00;;;;;14.18;100.00;101178.09;5093193;27;45812;-76
2023/03/21 01:03:41;;;;;;;;;8.33;8.00;;;;;14.19;100.00;101176.19;5090061;27;46254;-77
2023/03/21 01:06:12;;;;;;;;;10.00;9.00;;;;;14.13;100.00;101169.63;5094885;27;45345;-77
2023/03/21 01:08:40;;;;;;;;;8.67;6.67;;;;;14.04;100.00;101154.44;5096756;27;46510;-77
2023/03/21 01:11:13;;;;;;;;;9.67;7.67;;;;;14.05;100.00;101164.41;5090448;27;46314;-77
2023/03/21 01:13:39;;;;;;;;;7.67;7.67;;;;;14.02;100.00;101167.59;5095909;27;45576;-76
2023/03/21 01:16:06;;;;;;;;;7.00;7.00;;;;;13.95;100.00;101170.38;5097075;27;45501;-75
2023/03/21 01:18:34;;;;;;;;;6.33;6.33;;;;;13.91;100.00;101160.88;5093053;27;45708;-75
2023/03/21 01:21:00;;;;;;;;;9.00;8.33;;;;;13.87;100.00;101156.88;5097722;27;45706;-77
2023/03/21 01:23:28;;;;;;;;;9.33;7.33;;;;;13.89;100.00;101158.34;5093400;27;45572;-77
2023/03/21 01:25:55;;;;;;;;;11.67;9.00;;;;;13.87;100.00;101145.84;5097374;27;45447;-78
2023/03/21 01:28:21;;;;;;;;;11.33;4.67;;;;;13.84;100.00;101140.78;5096276;27;45623;-77
2023/03/21 01:30:49;;;;;;;;;11.00;6.67;;;;;13.84;100.00;101144.38;5100224;27;47169;-77
2023/03/21 01:33:15;;;;;;;;;9.67;8.33;;;;;13.84;100.00;101158.16;5088411;27;45433;-77
2023/03/21 01:35:41;;;;;;;;;8.00;8.00;;;;;13.84;100.00;101141.59;5099754;27;45713;-76
2023/03/21 01:38:08;;;;;;;;;9.33;8.33;;;;;13.84;100.00;101143.53;5102740;27;45983;-77
2023/03/21 01:40:34;;;;;;;;;6.33;5.67;;;;;13.82;100.00;101153.91;5109192;27;45658;-77
2023/03/21 01:42:59;;;;;;;;;7.67;7.33;;;;;13.82;100.00;101146.50;5098503;27;45431;-74
2023/03/21 01:45:59;;;;;;;;;8.67;7.00;;;;;13.81;100.00;101147.56;5099187;27;45341;-75
2023/03/21 01:48:27;;;;;;;;;7.00;7.00;;;;;13.72;100.00;101126.84;5088975;27;45387;-76
2023/03/21 01:50:54;;;;;;;;;7.67;6.67;;;;;13.82;100.00;101145.63;5093757;27;45517;-75
2023/03/21 01:53:23;;;;;;;;;6.33;5.67;;;;;13.81;100.00;101138.47;5098795;27;45637;-78
2023/03/21 01:55:48;;;;;;;;;4.33;4.33;;;;;13.80;100.00;101132.06;5095978;27;45449;-75
2023/03/21 01:58:17;;;;;;;;;8.00;6.33;;;;;13.69;100.00;101119.00;5091982;27;45065;-74
2023/03/21 02:00:50;;;;;;;;;8.33;7.33;;;;;13.83;100.00;101128.91;5092091;27;46139;-75
2023/03/21 02:03:16;;;;;;;;;6.33;3.67;;;;;13.82;100.00;101129.97;5103223;27;45396;-74
2023/03/21 02:05:55;;;;;;;;;3.67;3.67;;;;;13.83;100.00;101123.41;5099725;27;46022;-75
2023/03/21 02:08:22;;;;;;;;;6.67;4.67;;;;;13.81;100.00;101116.41;5113647;27;46967;-75
2023/03/21 02:10:49;;;;;;;;;7.67;4.00;;;;;13.74;100.00;101098.00;5086386;27;45825;-76
2023/03/21 02:13:15;;;;;;;;;6.33;5.67;;;;;13.83;100.00;101115.13;5085470;27;45897;-75
2023/03/21 02:15:47;;;;;;;;;4.33;4.33;;;;;13.77;100.00;101110.47;5092803;27;45341;-75
2023/03/21 02:18:44;;;;;;;;;6.67;5.33;;;;;13.77;100.00;101113.22;5116025;27;45576;-76
2023/03/21 02:21:31;;;;;;;;;7.00;5.00;;;;;13.74;100.00;101105.41;5087220;27;45832;-77
2023/03/21 02:23:59;;;;;;;;;7.00;5.33;;;;;13.73;100.00;101100.97;5094602;27;45809;-74
2023/03/21 02:26:30;;;;;;;;;8.67;5.67;;;;;13.66;100.00;101095.47;5088947;27;45437;-77
2023/03/21 02:29:00;;;;;;;;;7.33;5.67;;;;;13.63;100.00;101103.38;5093837;27;45816;-76
2023/03/21 02:31:47;;;;;;;;;6.00;6.00;;;;;13.61;100.00;101100.84;5101423;27;45672;-77
2023/03/21 02:34:42;;;;;;;;;6.00;6.00;;;;;13.56;100.00;101097.88;5095288;27;45408;-76
2023/03/21 02:37:16;;;;;;;;;6.67;5.67;;;;;13.54;100.00;101098.09;5091532;27;45573;-76
2023/03/21 02:39:55;;;;;;;;;7.67;6.00;;;;;13.47;100.00;101089.00;5104509;27;45845;-78
2023/03/21 02:42:59;;;;;;;;;5.33;5.33;;;;;13.48;100.00;101090.72;5104036;27;45450;-76
2023/03/21 02:45:32;;;;;;;;;9.00;4.00;;;;;13.46;100.00;101087.34;5092649;27;45867;-76
2023/03/21 02:48:05;;;;;;;;;4.33;4.33;;;;;13.37;100.00;101075.72;5102897;27;45383;-76
2023/03/21 02:50:45;;;;;;;;;5.00;3.00;;;;;13.37;100.00;101083.16;5094600;27;45597;-77
2023/03/21 02:53:15;;;;;;;;;7.00;5.33;;;;;13.34;100.00;101078.91;5106589;27;45600;-77
2023/03/21 02:55:42;;;;;;;;;7.00;5.00;;;;;13.33;100.00;101087.38;5103111;27;45402;-76
2023/03/21 02:58:12;;;;;;;;;5.33;4.67;;;;;13.30;100.00;101090.56;5110125;27;45395;-75
2023/03/21 03:00:39;;;;;;;;;7.00;5.33;;;;;13.28;100.00;101081.66;5101759;27;45842;-76
2023/03/21 03:03:04;;;;;;;;;5.00;3.33;;;;;13.24;100.00;101079.34;5109606;27;47190;-77
2023/03/21 03:05:36;;;;;;;;;6.33;4.33;;;;;13.20;100.00;101083.63;5105976;27;45606;-77
2023/03/21 03:08:21;;;;;;;;;4.67;3.67;;;;;13.20;100.00;101071.72;5115969;27;45490;-75
2023/03/21 03:11:19;;;;;;;;;4.00;4.00;;;;;13.19;100.00;101070.06;5103222;27;45767;-75
2023/03/21 03:14:05;;;;;;;;;4.33;4.33;;;;;13.17;100.00;101067.53;5105810;27;45753;-75
2023/03/21 03:17:02;;;;;;;;;5.67;3.33;;;;;13.14;100.00;101067.94;5105661;27;44803;-77
2023/03/21 03:19:33;;;;;;;;;4.67;4.00;;;;;13.15;100.00;101068.81;5111777;27;45275;-76
2023/03/21 03:22:09;;;;;;;;;3.33;3.33;;;;;13.14;100.00;101072.59;5108797;27;44768;-76
2023/03/21 03:25:03;;;;;;;;;2.67;2.67;;;;;13.12;100.00;101072.81;5109832;27;47142;-75
2023/03/21 03:27:35;;;;;;;;;4.00;4.00;;;;;13.11;100.00;101062.88;5106602;27;45344;-76
2023/03/21 03:30:04;;;;;;;;;5.33;5.33;;;;;13.13;100.00;101060.75;5093920;27;44915;-76
2023/03/21 03:32:49;;;;;;;;;5.00;3.67;;;;;13.13;100.00;101055.25;5085213;27;45420;-78
2023/03/21 03:35:18;;;;;;;;;6.33;4.33;;;;;13.11;100.00;101046.34;5094801;27;47012;-76
2023/03/21 03:37:53;;;;;;;;;3.33;2.33;;;;;13.06;100.00;101043.41;5094701;27;45392;-77
2023/03/21 03:40:36;;;;;;;;;7.33;4.00;;;;;13.07;100.00;101050.63;5084792;27;45782;-77
2023/03/21 03:43:09;;;;;;;;;5.67;4.00;;;;;13.03;100.00;101050.19;5079983;27;45609;-75
2023/03/21 03:45:57;;;;;;;;;4.33;3.67;;;;;13.05;100.00;101059.09;5074731;27;46131;-76
2023/03/21 03:48:26;;;;;;;;;2.67;2.67;;;;;13.04;100.00;101056.56;5093574;27;45441;-78
2023/03/21 03:50:52;;;;;;;;;3.33;3.33;;;;;13.05;100.00;101050.84;5089750;27;45365;-76
2023/03/21 03:53:39;;;;;;;;;4.33;3.33;;;;;13.07;100.00;101045.13;5081176;27;45712;-76
2023/03/21 03:56:08;;;;;;;;;2.00;2.00;;;;;13.06;100.00;101052.50;5082325;27;45480;-76
2023/03/21 03:58:37;;;;;;;;;6.67;4.33;;;;;13.06;100.00;101044.25;5092480;27;46584;-76
2023/03/21 04:01:04;;;;;;;;;3.67;2.67;;;;;12.99;100.00;101026.91;5083107;27;45662;-77
2023/03/21 04:03:30;;;;;;;;;3.00;2.67;;;;;13.10;100.00;101052.94;5089376;27;45899;-76
2023/03/21 04:05:56;;;;;;;;;5.33;4.00;;;;;13.07;100.00;101056.97;5094236;27;45742;-78
2023/03/21 04:08:22;;;;;;;;;2.67;2.67;;;;;13.09;100.00;101059.50;5094482;27;45768;-76
2023/03/21 04:10:48;;;;;;;;;3.67;3.67;;;;;13.10;100.00;101060.34;5083375;27;45578;-75
2023/03/21 04:13:13;;;;;;;;;3.00;1.67;;;;;13.11;100.00;101057.34;5084971;27;46205;-75
2023/03/21 04:15:39;;;;;;;;;4.00;4.00;;;;;13.12;100.00;101061.81;5084331;27;46254;-76
2023/03/21 04:18:05;;;;;;;;;4.33;3.00;;;;;13.14;100.00;101067.94;5093261;27;45418;-76
2023/03/21 04:20:30;;;;;;;;;4.33;2.33;;;;;13.13;100.00;101066.28;5089079;27;45434;-75
2023/03/21 04:22:56;;;;;;;;;5.00;2.67;;;;;13.16;100.00;101071.34;5086498;27;45326;-76
2023/03/21 04:25:22;;;;;;;;;3.33;2.33;;;;;13.18;100.00;101063.69;5084608;27;45568;-76
2023/03/21 04:27:47;;;;;;;;;6.00;5.33;;;;;13.19;100.00;101059.88;5095032;27;45585;-76
2023/03/21 04:30:14;;;;;;;;;3.00;3.00;;;;;13.20;100.00;101071.72;5090186;27;45819;-76
2023/03/21 04:32:39;;;;;;;;;2.00;2.00;;;;;13.19;100.00;101053.53;5092594;27;46526;-76
2023/03/21 04:35:10;;;;;;;;;4.33;1.33;;;;;13.22;100.00;101053.09;5088276;27;46628;-77
2023/03/21 04:37:38;;;;;;;;;5.00;2.67;;;;;13.21;100.00;101046.72;5078312;27;45686;-78
2023/03/21 04:40:05;;;;;;;;;7.00;4.33;;;;;13.15;100.00;101046.78;5093992;27;45406;-77
2023/03/21 04:42:32;;;;;;;;;6.33;5.33;;;;;13.10;100.00;101038.31;5094709;27;45798;-78
2023/03/21 04:44:58;;;;;;;;;2.67;2.67;;;;;13.11;100.00;101040.84;5092285;27;45539;-77
2023/03/21 04:47:23;;;;;;;;;5.00;4.67;;;;;13.19;100.00;101042.53;5098459;27;45767;-77
2023/03/21 04:49:49;;;;;;;;;6.33;4.67;;;;;13.15;100.00;101044.84;5093250;27;45479;-76
2023/03/21 04:52:15;;;;;;;;;6.33;3.00;;;;;13.10;100.00;101036.41;5096327;27;45317;-76
2023/03/21 04:54:40;;;;;;;;;3.67;3.67;;;;;13.14;100.00;101048.66;5097641;27;45519;-77
2023/03/21 04:57:06;;;;;;;;;3.67;3.67;;;;;13.13;100.00;101051.63;5102995;27;45824;-76
2023/03/21 04:59:32;;;;;;;;;4.33;4.00;;;;;13.11;100.00;101048.25;5095241;27;45327;-75
2023/03/21 05:01:58;;;;;;;;;3.00;3.00;;;;;12.93;100.00;101025.03;5097135;27;45508;-76
2023/03/21 05:04:25;;;;;;;;;2.00;2.00;;;;;13.08;100.00;101046.78;5090228;27;45721;-78
2023/03/21 05:06:51;;;;;;;;;4.00;3.67;;;;;13.08;100.00;101052.28;5093379;27;45313;-75
2023/03/21 05:09:16;;;;;;;;;4.67;4.67;;;;;13.06;100.00;101049.75;5094315;27;45778;-78
2023/03/21 05:11:41;;;;;;;;;3.33;3.00;;;;;13.05;100.00;101038.97;5089728;27;45568;-75
2023/03/21 05:14:10;;;;;;;;;4.67;2.67;;;;;13.06;100.00;101049.75;5101217;27;46573;-75
2023/03/21 05:16:43;;;;;;;;;6.00;4.33;;;;;13.06;100.00;101040.66;5096511;27;45787;-75
2023/03/21 05:19:12;;;;;;;;;4.33;3.67;;;;;13.10;100.00;101050.19;5089984;27;45530;-76
2023/03/21 05:21:41;;;;;;;;;3.00;3.00;;;;;13.01;100.00;101027.56;5083356;27;45750;-76
2023/03/21 05:24:16;;;;;;;;;4.67;4.67;;;;;13.13;100.00;101043.38;5097031;27;46100;-72
2023/03/21 05:26:43;;;;;;;;;3.67;3.67;;;;;13.11;100.00;101034.50;5085635;27;45462;-72
2023/03/21 05:29:09;;;;;;;;;5.33;4.00;;;;;13.13;100.00;101033.22;5087154;27;45425;-72
2023/03/21 05:31:35;;;;;;;;;7.33;5.00;;;;;13.17;100.00;101034.47;5102973;27;45812;-71
2023/03/21 05:34:01;;;;;;;;;12.33;9.33;;;;;13.16;100.00;101027.28;5100026;27;46429;-71
2023/03/21 05:36:26;;;;;;;;;5.33;2.33;;;;;13.14;100.00;101036.81;5099854;27;45306;-72
2023/03/21 05:38:52;;;;;;;;;7.67;4.67;;;;;13.00;100.00;101016.75;5091555;27;45732;-70
2023/03/21 05:41:17;;;;;;;;;2.67;2.67;;;;;13.07;100.00;101034.09;5092818;27;45516;-70
2023/03/21 05:43:43;;;;;;;;;3.00;3.00;;;;;13.07;100.00;101028.59;5089750;27;47887;-71
2023/03/21 05:46:09;;;;;;;;;6.33;6.33;;;;;13.05;100.00;101036.22;5088121;27;45389;-71
2023/03/21 05:48:35;;;;;;;;;7.33;3.00;;;;;13.03;100.00;101038.34;5093972;27;45677;-69
2023/03/21 05:51:02;;;;;;;;;4.33;4.00;;;;;13.00;100.00;101034.13;5084689;27;45565;-76
2023/03/21 05:53:27;;;;;;;;;6.67;4.67;;;;;12.93;100.00;101036.03;5086487;27;46451;-69
2023/03/21 05:55:53;;;;;;;;;6.33;3.67;;;;;12.87;100.00;101028.66;5084468;27;45640;-69
2023/03/21 05:58:18;;;;;;;;;6.67;4.00;;;;;12.88;100.00;101025.69;5084130;27;46080;-68
2023/03/21 06:00:44;;;;;;;;;7.33;6.67;;;;;12.87;100.00;101047.94;5083687;27;45640;-70
2023/03/21 06:03:10;;;;;;;;;9.67;7.00;;;;;12.82;100.00;101033.97;5084684;27;47054;-68
2023/03/21 06:05:35;;;;;;;;;7.33;4.33;;;;;12.81;100.00;101024.03;5074719;27;45567;-69
2023/03/21 06:08:01;;;;;;;;;3.67;3.67;;;;;12.77;100.00;101026.38;5087066;27;45739;-69
2023/03/21 06:10:26;;;;;;;;;4.00;4.00;;;;;12.72;100.00;101015.16;5088903;27;45303;-69
2023/03/21 06:12:52;;;;;;;;;3.33;3.33;;;;;12.66;100.00;101019.63;5092836;27;45682;-74
2023/03/21 06:15:18;;;;;;;;;5.00;5.00;;;;;12.63;100.00;101024.72;5090604;27;45348;-69
2023/03/21 06:17:43;;;;;;;;;6.00;5.00;;;;;12.65;100.00;101037.19;5105845;27;45820;-69
2023/03/21 06:20:09;;;;;;;;;4.67;4.67;;;;;12.70;100.00;101044.81;5080490;27;45359;-70
2023/03/21 06:22:35;;;;;;;;;8.00;4.67;;;;;12.75;100.00;101042.25;5075472;27;45333;-70
2023/03/21 06:25:01;;;;;;;;;4.33;4.33;;;;;12.75;100.00;101044.16;5077415;27;46570;-69
2023/03/21 06:27:26;;;;;;;;;6.67;5.33;;;;;12.77;100.00;101051.16;5093963;27;45563;-69
2023/03/21 06:29:52;;;;;;;;;8.00;6.67;;;;;12.81;100.00;101038.63;5088259;27;45887;-69
2023/03/21 06:32:18;;;;;;;;;5.33;5.33;;;;;12.92;100.00;101044.53;5082159;27;46392;-69
2023/03/21 06:34:43;;;;;;;;;7.67;7.00;;;;;12.94;100.00;101047.91;5081982;27;45264;-70
2023/03/21 06:37:09;;;;;;;;;4.00;3.67;;;;;13.00;100.00;101044.28;5082977;27;46498;-67
2023/03/21 06:39:35;;;;;;;;;5.00;5.00;;;;;13.05;100.00;101038.97;5100876;27;46031;-68
2023/03/21 06:42:00;;;;;;;;;4.00;4.00;;;;;13.10;100.00;101033.66;5089695;27;45962;-67
2023/03/21 06:44:26;;;;;;;;;6.67;5.00;;;;;13.23;100.00;101032.75;5086758;27;45822;-70
2023/03/21 06:46:52;;;;;;;;;8.67;5.67;;;;;13.34;100.00;101029.34;5089725;27;45607;-69
2023/03/21 06:49:18;;;;;;;;;8.00;6.00;;;;;13.32;100.00;101014.06;5082828;27;45676;-68
2023/03/21 06:51:44;;;;;;;;;8.33;6.33;;;;;13.49;100.00;101036.44;5085828;27;45444;-69
2023/03/21 06:54:09;;;;;;;;;5.67;5.67;;;;;13.50;100.00;101019.72;5093156;27;45814;-67
2023/03/21 06:56:35;;;;;;;;;5.00;3.00;;;;;13.54;100.00;101007.16;5089303;27;45439;-66
2023/03/21 06:59:00;;;;;;;;;6.67;6.67;;;;;13.56;100.00;101007.81;5094567;27;46794;-71
2023/03/21 07:01:26;;;;;;;;;7.00;5.00;;;;;13.49;100.00;101001.47;5079031;27;46043;-70
2023/03/21 07:03:55;;;;;;;;;5.67;5.00;;;;;13.54;100.00;101006.31;5087428;27;45821;-73
2023/03/21 07:06:21;;;;;;;;;5.00;4.33;;;;;13.67;100.00;101010.91;5093482;27;45663;-71
2023/03/21 07:08:46;;;;;;;;;5.33;3.67;;;;;13.80;100.00;101005.28;5085727;27;45715;-74
2023/03/21 07:11:12;;;;;;;;;4.67;4.67;;;;;14.00;100.00;101009.81;5079341;27;47077;-73
2023/03/21 07:13:38;;;;;;;;;8.33;5.67;;;;;13.98;100.00;100970.56;5104532;27;45537;-73
2023/03/21 07:16:04;;;;;;;;;8.33;8.33;;;;;14.39;100.00;101005.81;5085222;27;45656;-72
2023/03/21 07:18:31;;;;;;;;;4.67;4.67;;;;;14.63;100.00;101008.78;5086160;27;45635;-71
2023/03/21 07:20:56;;;;;;;;;4.67;3.00;;;;;14.89;100.00;100990.22;5082544;27;46187;-73
2023/03/21 07:23:24;;;;;;;;;6.67;5.00;;;;;15.29;100.00;101006.25;5088522;27;45598;-73
2023/03/21 07:25:51;;;;;;;;;7.00;5.33;;;;;15.48;100.00;101021.72;5078388;27;45430;-74
2023/03/21 07:28:17;;;;;;;;;6.00;6.00;;;;;15.51;100.00;101003.81;5091948;27;45491;-71
2023/03/21 07:30:44;;;;;;;;;6.33;4.33;;;;;15.70;100.00;101019.28;5083611;27;46034;-71
2023/03/21 07:33:11;;;;;;;;;11.00;9.33;;;;;15.76;100.00;101003.63;5081105;27;45640;-71
2023/03/21 07:35:37;;;;;;;;;7.33;6.67;;;;;15.83;100.00;101018.22;5076693;27;45559;-74
2023/03/21 07:38:03;;;;;;;;;5.00;5.00;;;;;15.88;100.00;101001.78;5086836;27;45507;-75
2023/03/21 07:40:30;;;;;;;;;8.33;8.33;;;;;15.97;100.00;100984.81;5085629;27;48257;-74
2023/03/21 07:42:55;;;;;;;;;9.33;7.33;;;;;16.01;100.00;100984.09;5090821;27;46175;-71
2023/03/21 07:45:22;;;;;;;;;6.67;5.33;;;;;16.10;100.00;100978.22;5085911;27;47361;-79
2023/03/21 07:47:48;;;;;;;;;5.00;5.00;;;;;16.15;100.00;100987.50;5088505;27;45880;-73
2023/03/21 07:50:14;;;;;;;;;6.67;6.33;;;;;16.18;100.00;100944.66;5088988;27;45638;-74
2023/03/21 07:52:40;;;;;;;;;11.67;7.67;;;;;16.06;100.00;100939.97;5089882;27;45714;-74
2023/03/21 07:55:06;;;;;;;;;5.00;5.00;;;;;15.89;100.00;100930.69;5105604;27;45867;-74
2023/03/21 07:57:31;;;;;;;;;5.00;5.00;;;;;15.75;100.00;100949.41;5088207;27;45987;-74
2023/03/21 07:59:57;;;;;;;;;9.33;7.33;;;;;15.69;100.00;100967.81;5086471;27;46023;-76
2023/03/21 08:02:22;;;;;;;;;9.00;7.67;;;;;15.57;100.00;100980.75;5091351;27;45960;-73
2023/03/21 08:04:48;;;;;;;;;9.00;7.00;;;;;15.33;100.00;100960.50;5091150;27;45458;-73
2023/03/21 08:07:13;;;;;;;;;6.00;6.00;;;;;15.38;100.00;100988.28;5081482;27;45923;-73
2023/03/21 08:09:39;;;;;;;;;9.33;5.00;;;;;15.25;100.00;100992.06;5090729;27;47595;-72
2023/03/21 08:12:07;;;;;;;;;7.33;6.33;;;;;15.26;100.00;101015.84;5094280;27;45636;-72
2023/03/21 08:14:33;;;;;;;;;8.33;8.00;;;;;15.18;100.00;101013.44;5088386;27;45764;-74
2023/03/21 08:16:59;;;;;;;;;8.00;6.33;;;;;15.18;100.00;101030.00;5084713;27;45724;-74
2023/03/21 08:19:25;;;;;;;;;7.67;7.67;;;;;15.23;100.00;101041.19;5096542;27;45570;-74
2023/03/21 08:21:51;;;;;;;;;7.00;6.67;;;;;15.35;100.00;101030.19;5093368;27;45774;-74
2023/03/21 08:24:17;;;;;;;;;5.00;5.00;;;;;15.52;100.00;101028.47;5077848;27;45926;-69
2023/03/21 08:26:44;;;;;;;;;7.67;6.67;;;;;15.76;100.00;101027.69;5091280;27;45557;-73
2023/03/21 08:29:11;;;;;;;;;9.00;6.67;;;;;15.98;100.00;101011.41;5094843;27;46289;-74
2023/03/21 08:31:36;;;;;;;;;4.67;4.67;;;;;16.20;100.00;101003.38;5092518;27;45505;-72
2023/03/21 08:34:02;;;;;;;;;13.33;7.33;;;;;16.19;100.00;100993.38;5087693;27;45706;-71
2023/03/21 08:36:29;;;;;;;;;5.67;5.67;;;;;16.47;100.00;101002.91;5101374;27;45488;-72
2023/03/21 08:38:55;;;;;;;;;10.00;6.33;;;;;16.62;100.00;100992.16;5079958;27;46163;-71
2023/03/21 08:41:24;;;;;;;;;6.67;6.00;;;;;16.83;100.00;100998.97;5084555;27;45261;-70
2023/03/21 08:43:49;;;;;;;;;9.00;5.67;;;;;16.99;100.00;101004.84;5085437;27;45483;-71
2023/03/21 08:46:15;;;;;;;;;7.67;5.33;;;;;17.25;100.00;101017.31;5089257;27;45587;-71
2023/03/21 08:48:41;;;;;;;;;5.67;5.67;;;;;17.45;100.00;101022.41;5095582;27;46113;-70
2023/03/21 08:51:06;;;;;;;;;5.00;5.00;;;;;17.59;100.00;101017.38;5089752;27;45787;-69
2023/03/21 08:53:32;;;;;;;;;9.67;8.33;;;;;17.79;100.00;101000.28;5087796;27;45456;-71
2023/03/21 08:55:58;;;;;;;;;5.67;4.33;;;;;17.94;100.00;101003.34;5084224;27;45748;-71
2023/03/21 08:58:23;;;;;;;;;5.00;5.00;;;;;18.25;100.00;101025.19;5090417;27;45771;-70
2023/03/21 09:00:49;;;;;;;;;6.67;6.67;;;;;18.46;100.00;101021.66;5083175;27;45462;-70
2023/03/21 09:03:15;;;;;;;;;8.67;5.00;;;;;18.51;100.00;101024.47;5093595;27;45354;-69
2023/03/21 09:05:44;;;;;;;;;4.00;4.00;;;;;18.69;100.00;101031.69;5083639;27;45294;-71
2023/03/21 09:08:11;;;;;;;;;7.00;5.33;;;;;18.86;100.00;101030.81;5092456;27;46283;-72
2023/03/21 09:10:37;;;;;;;;;4.00;4.00;;;;;18.81;100.00;101028.78;5092533;27;45610;-71
2023/03/21 09:13:03;;;;;;;;;4.00;4.00;;;;;18.77;100.00;101024.88;5092507;27;45366;-71
2023/03/21 09:15:28;;;;;;;;;4.00;3.00;;;;;18.74;99.85;101028.13;5084925;27;46189;-70
2023/03/21 09:17:57;;;;;;;;;5.00;5.00;;;;;18.73;99.87;101025.59;5082059;27;45648;-69
2023/03/21 09:20:29;;;;;;;;;5.00;4.00;;;;;18.77;100.00;101022.09;5083263;27;45373;-70
2023/03/21 09:22:55;;;;;;;;;4.33;3.00;;;;;18.75;100.00;101018.72;5075644;27;45496;-72
2023/03/21 09:25:23;;;;;;;;;4.67;4.33;;;;;18.68;99.85;101027.25;5092369;27;45877;-70
2023/03/21 09:27:50;;;;;;;;;4.00;3.00;;;;;18.59;100.00;101020.41;5089902;27;46044;-70
2023/03/21 09:30:18;;;;;;;;;3.33;3.00;;;;;18.60;100.00;101013.78;5088127;27;45539;-71
2023/03/21 09:32:48;;;;;;;;;7.00;4.67;;;;;18.75;100.00;101017.88;5093799;27;45383;-71
2023/03/21 09:35:18;;;;;;;;;4.33;4.33;;;;;18.81;100.00;101016.84;5090467;27;45866;-70
2023/03/21 09:37:44;;;;;;;;;6.33;4.67;;;;;19.01;100.00;101027.41;5088870;27;45811;-72
2023/03/21 09:40:41;;;;;;;;;3.33;3.33;;;;;19.42;100.00;101027.91;5083358;27;45503;-70
2023/03/21 09:43:12;;;;;;;;;6.33;5.00;;;;;20.38;97.91;101034.63;5078686;27;45813;-70
2023/03/21 09:45:53;;;;;;;;;4.00;3.67;;;;;21.05;95.50;101025.81;5085853;27;45469;-70
2023/03/21 09:48:35;;;;;;;;;3.00;3.00;;;;;21.22;94.22;101026.47;5080232;27;45533;-70
2023/03/21 09:51:03;;;;;;;;;3.33;3.33;;;;;21.48;94.18;101029.31;5092076;27;45634;-70
2023/03/21 09:53:37;;;;;;;;;5.33;4.00;;;;;21.89;92.77;101021.06;5090744;27;45913;-67
2023/03/21 09:56:04;;;;;;;;;4.00;3.67;;;;;22.07;91.12;101022.44;5090721;27;45787;-71
2023/03/21 09:58:35;;;;;;;;;4.00;4.00;;;;;21.97;89.00;101014.91;5086850;27;45883;-71
2023/03/21 10:01:27;;;;;;;;;4.33;3.33;;;;;21.80;90.15;101015.19;5077861;27;45403;-71
2023/03/21 10:04:02;;;;;;;;;4.00;4.00;;;;;21.52;89.72;100989.44;5083719;27;45520;-70
2023/03/21 10:06:29;;;;;;;;;4.00;3.00;;;;;21.44;90.21;101020.66;5088686;27;45471;-72
2023/03/21 10:09:21;;;;;;;;;2.00;2.00;;;;;21.16;90.06;101025.59;5091774;27;46962;-71
2023/03/21 10:11:57;;;;;;;;;6.00;5.00;;;;;20.98;91.02;101032.50;5084973;27;45711;-71
2023/03/21 10:14:34;;;;;;;;;5.00;3.67;;;;;20.90;91.26;101034.97;5088505;27;46441;-73
2023/03/21 10:17:18;;;;;;;;;5.00;3.33;;;;;20.93;91.62;101038.06;5092693;27;45692;-72
2023/03/21 10:19:45;;;;;;;;;2.00;2.00;;;;;20.95;91.40;101035.84;5079548;27;45404;-70
2023/03/21 10:22:11;;;;;;;;;5.67;3.67;;;;;20.96;91.47;101023.56;5099515;27;45484;-72
2023/03/21 10:24:37;;;;;;;;;4.00;4.00;;;;;21.07;91.50;101029.19;5093683;27;45440;-72
2023/03/21 10:27:03;;;;;;;;;4.67;3.00;;;;;20.96;92.21;101029.16;5093669;27;45860;-73
2023/03/21 10:29:42;;;;;;;;;4.67;4.67;;;;;20.97;92.02;101030.84;5082277;27;45466;-72
2023/03/21 10:32:14;;;;;;;;;4.33;3.33;;;;;20.89;91.78;101028.56;5094737;27;45385;-74
2023/03/21 10:34:44;;;;;;;;;4.33;3.33;;;;;20.86;92.36;101028.28;5089264;27;45566;-72
2023/03/21 10:37:11;;;;;;;;;4.67;3.67;;;;;20.94;91.92;101023.03;5083243;27;45403;-73
2023/03/21 10:39:42;;;;;;;;;3.33;3.33;;;;;21.01;91.93;101024.72;5082181;27;45919;-72
2023/03/21 10:42:25;;;;;;;;;4.00;3.00;;;;;21.15;92.33;101015.56;5091266;27;45341;-72
2023/03/21 10:44:53;;;;;;;;;3.00;3.00;;;;;21.24;91.01;101012.25;5098904;27;45400;-72
2023/03/21 10:47:26;;;;;;;;;4.33;2.00;;;;;21.38;91.62;101023.72;5098261;27;45728;-73
2023/03/21 10:49:52;;;;;;;;;4.67;3.00;;;;;21.43;90.82;101005.03;5090240;27;47346;-71
2023/03/21 10:52:22;;;;;;;;;1.67;1.67;;;;;21.59;90.83;101008.72;5087469;27;46859;-72
2023/03/21 10:54:49;;;;;;;;;2.33;2.33;;;;;21.64;90.86;101017.09;5091953;27;45415;-72
2023/03/21 10:57:20;;;;;;;;;3.00;3.00;;;;;21.62;89.95;101024.94;5081925;27;45751;-73
2023/03/21 11:00:00;;;;;;;;;3.33;3.33;;;;;21.62;90.68;101021.31;5084612;27;45504;-73
2023/03/21 11:02:32;;;;;;;;;3.67;2.00;;;;;21.68;90.70;101012.66;5073514;27;45353;-73
2023/03/21 11:05:23;;;;;;;;;3.00;3.00;;;;;21.77;90.25;101010.16;5083791;27;45391;-74
2023/03/21 11:08:01;;;;;;;;;4.00;3.00;;;;;21.71;89.44;101022.44;5088889;27;45994;-73
2023/03/21 11:10:36;;;;;;;;;4.00;4.00;;;;;21.74;90.13;101018.25;5090744;27;46510;-73
2023/03/21 11:13:15;;;;;;;;;3.00;2.33;;;;;21.82;89.92;101012.09;5083317;27;45324;-73
2023/03/21 11:15:52;;;;;;;;;5.00;3.67;;;;;21.77;89.94;101020.50;5081089;27;45640;-73
2023/03/21 11:18:21;;;;;;;;;5.67;3.67;;;;;21.93;90.04;101013.81;5089165;27;45349;-73
2023/03/21 11:21:08;;;;;;;;;4.33;4.00;;;;;22.19;89.96;101011.81;5081801;27;45506;-74
2023/03/21 11:23:40;;;;;;;;;6.33;5.00;;;;;22.59;89.91;101008.44;5085267;27;45416;-74
2023/03/21 11:26:15;;;;;;;;;3.33;3.33;;;;;22.75;90.24;101004.47;5089113;27;45425;-73